TimeCDT,TemperatureF,Dew PointF,Humidity,Sea Level PressureIn,VisibilityMPH,Wind Direction,Wind SpeedMPH,Gust SpeedMPH,PrecipitationIn,Events,Conditions,WindDirDegrees,DateUTC
12:05 AM,50.0,41.0,71,30.12,10.0,NNW,4.6,-,N/A,,Clear,330,2013-10-24 05:05:00
12:25 AM,48.2,41.0,76,30.13,10.0,NNW,4.6,-,N/A,,Clear,330,2013-10-24 05:25:00
12:45 AM,48.2,41.0,76,30.14,10.0,North,12.7,-,N/A,,Clear,360,2013-10-24 05:45:00
1:05 AM,48.2,41.0,76,30.15,10.0,NNE,10.4,-,N/A,,Clear,30,2013-10-24 06:05:00
1:30 AM,50.0,41.0,71,30.15,10.0,NNE,11.5,-,N/A,,Clear,30,2013-10-24 06:30:00
1:45 AM,48.2,41.0,76,30.16,10.0,NNE,8.1,-,N/A,,Clear,30,2013-10-24 06:45:00
2:05 AM,48.2,41.0,76,30.16,10.0,NNE,11.5,-,N/A,,Clear,30,2013-10-24 07:05:00
2:25 AM,48.2,41.0,76,30.18,10.0,NNE,12.7,-,N/A,,Clear,20,2013-10-24 07:25:00
2:45 AM,48.2,39.2,71,30.19,10.0,North,11.5,-,N/A,,Clear,10,2013-10-24 07:45:00
3:05 AM,48.2,39.2,71,30.20,10.0,NNE,15.0,-,N/A,,Clear,20,2013-10-24 08:05:00
3:30 AM,48.2,39.2,71,30.20,10.0,NNE,15.0,21.9,N/A,,Clear,30,2013-10-24 08:30:00
3:45 AM,46.4,39.2,76,30.20,10.0,NNE,15.0,-,N/A,,Clear,30,2013-10-24 08:45:00
4:05 AM,46.4,39.2,76,30.21,10.0,NNE,16.1,21.9,N/A,,Clear,20,2013-10-24 09:05:00
4:25 AM,46.4,39.2,76,30.22,10.0,NNE,13.8,-,N/A,,Clear,20,2013-10-24 09:25:00
4:45 AM,46.4,37.4,71,30.22,10.0,NNE,17.3,-,N/A,,Clear,20,2013-10-24 09:45:00
5:05 AM,44.6,37.4,76,30.23,10.0,NNE,13.8,-,N/A,,Clear,20,2013-10-24 10:05:00
5:25 AM,44.6,37.4,76,30.24,10.0,NNE,12.7,-,N/A,,Clear,20,2013-10-24 10:25:00
5:45 AM,44.6,37.4,76,30.24,10.0,NNE,13.8,-,N/A,,Clear,30,2013-10-24 10:45:00
6:05 AM,44.6,37.4,76,30.25,10.0,NNE,15.0,-,N/A,,Clear,30,2013-10-24 11:05:00
6:25 AM,42.8,35.6,76,30.27,10.0,NNE,12.7,-,N/A,,Clear,20,2013-10-24 11:25:00
6:45 AM,42.8,35.6,76,30.29,10.0,North,12.7,-,N/A,,Clear,10,2013-10-24 11:45:00
7:05 AM,42.8,35.6,76,30.30,10.0,NNE,11.5,-,N/A,,Clear,20,2013-10-24 12:05:00
7:25 AM,41.0,35.6,81,30.31,10.0,NNE,10.4,-,N/A,,Clear,30,2013-10-24 12:25:00
7:45 AM,41.0,37.4,87,30.32,10.0,NNE,13.8,-,N/A,,Clear,30,2013-10-24 12:45:00
8:05 AM,41.0,37.4,87,30.33,10.0,NE,11.5,-,N/A,,Clear,40,2013-10-24 13:05:00
8:25 AM,41.0,37.4,87,30.34,10.0,NNE,11.5,-,N/A,,Clear,30,2013-10-24 13:25:00
8:50 AM,42.8,37.4,81,30.36,10.0,NE,10.4,-,N/A,,Clear,40,2013-10-24 13:50:00
9:05 AM,44.6,37.4,76,30.37,10.0,NE,10.4,-,N/A,,Clear,40,2013-10-24 14:05:00
9:25 AM,44.6,35.6,71,30.38,10.0,NE,13.8,-,N/A,,Clear,50,2013-10-24 14:25:00
9:50 AM,44.6,33.8,66,30.39,10.0,NE,15.0,19.6,N/A,,Clear,50,2013-10-24 14:50:00
10:10 AM,46.4,33.8,62,30.39,10.0,ENE,16.1,-,N/A,,Clear,60,2013-10-24 15:10:00
10:25 AM,46.4,32.0,57,30.39,9.0,ENE,17.3,23.0,N/A,,Clear,60,2013-10-24 15:25:00
10:45 AM,46.4,32.0,57,30.40,10.0,ENE,15.0,-,N/A,,Clear,70,2013-10-24 15:45:00
11:05 AM,48.2,33.8,58,30.40,10.0,East,15.0,20.7,N/A,,Clear,80,2013-10-24 16:05:00
11:30 AM,50.0,33.8,54,30.40,10.0,NE,15.0,18.4,N/A,,Clear,50,2013-10-24 16:30:00
11:45 AM,50.0,33.8,54,30.41,10.0,ENE,11.5,-,N/A,,Clear,60,2013-10-24 16:45:00
12:05 PM,50.0,33.8,54,30.41,10.0,ENE,11.5,17.3,N/A,,Clear,60,2013-10-24 17:05:00
12:25 PM,50.0,33.8,54,30.40,10.0,NE,12.7,18.4,N/A,,Clear,50,2013-10-24 17:25:00
12:45 PM,51.8,33.8,50,30.40,10.0,ENE,9.2,-,N/A,,Clear,60,2013-10-24 17:45:00
1:05 PM,51.8,33.8,50,30.39,10.0,ENE,13.8,19.6,N/A,,Clear,60,2013-10-24 18:05:00
1:30 PM,53.6,33.8,47,30.38,10.0,ENE,11.5,17.3,N/A,,Clear,60,2013-10-24 18:30:00
1:45 PM,53.6,33.8,47,30.37,10.0,ENE,11.5,19.6,N/A,,Clear,60,2013-10-24 18:45:00
2:05 PM,53.6,33.8,47,30.36,10.0,NE,9.2,17.3,N/A,,Clear,50,2013-10-24 19:05:00
2:25 PM,55.4,33.8,44,30.35,10.0,ENE,12.7,17.3,N/A,,Clear,70,2013-10-24 19:25:00
2:45 PM,55.4,32.0,41,30.35,10.0,East,12.7,-,N/A,,Clear,80,2013-10-24 19:45:00
3:05 PM,55.4,32.0,41,30.35,9.0,ENE,10.4,-,N/A,,Clear,60,2013-10-24 20:05:00
3:25 PM,55.4,32.0,41,30.34,10.0,ENE,9.2,16.1,N/A,,Clear,60,2013-10-24 20:25:00
3:45 PM,55.4,32.0,41,30.34,10.0,ENE,9.2,-,N/A,,Clear,70,2013-10-24 20:45:00
4:05 PM,55.4,32.0,41,30.33,10.0,ENE,10.4,17.3,N/A,,Clear,70,2013-10-24 21:05:00
4:25 PM,55.4,32.0,41,30.33,10.0,ENE,11.5,19.6,N/A,,Clear,60,2013-10-24 21:25:00
4:45 PM,55.4,32.0,41,30.33,10.0,ENE,12.7,17.3,N/A,,Clear,60,2013-10-24 21:45:00
5:10 PM,55.4,32.0,41,30.32,10.0,ENE,12.7,16.1,N/A,,Clear,60,2013-10-24 22:10:00
5:25 PM,55.4,32.0,41,30.32,10.0,East,10.4,-,N/A,,Clear,80,2013-10-24 22:25:00
5:45 PM,55.4,32.0,41,30.32,10.0,East,11.5,-,N/A,,Clear,80,2013-10-24 22:45:00
6:05 PM,53.6,32.0,44,30.33,10.0,ENE,10.4,-,N/A,,Clear,70,2013-10-24 23:05:00
6:25 PM,53.6,32.0,44,30.33,10.0,East,9.2,-,N/A,,Clear,80,2013-10-24 23:25:00
6:50 PM,50.0,32.0,50,30.33,10.0,East,6.9,-,N/A,,Clear,80,2013-10-24 23:50:00
7:05 PM,50.0,32.0,50,30.34,10.0,East,6.9,-,N/A,,Clear,80,2013-10-25 00:05:00
7:25 PM,48.2,32.0,54,30.34,10.0,ENE,8.1,-,N/A,,Scattered Clouds,70,2013-10-25 00:25:00
7:45 PM,48.2,32.0,54,30.35,10.0,ENE,8.1,-,N/A,,Mostly Cloudy,70,2013-10-25 00:45:00
8:05 PM,48.2,32.0,54,30.35,10.0,ENE,8.1,-,N/A,,Mostly Cloudy,70,2013-10-25 01:05:00
8:25 PM,46.4,32.0,57,30.36,10.0,ENE,6.9,-,N/A,,Overcast,70,2013-10-25 01:25:00
8:45 PM,46.4,32.0,57,30.37,10.0,ENE,6.9,-,N/A,,Overcast,70,2013-10-25 01:45:00
9:05 PM,44.6,32.0,61,30.37,10.0,ENE,6.9,-,N/A,,Overcast,60,2013-10-25 02:05:00
9:25 PM,44.6,32.0,61,30.38,9.0,NE,5.8,-,N/A,,Overcast,50,2013-10-25 02:25:00
9:45 PM,44.6,32.0,61,30.38,10.0,ENE,5.8,-,N/A,,Overcast,60,2013-10-25 02:45:00
10:05 PM,42.8,32.0,66,30.39,9.0,NE,5.8,-,N/A,,Overcast,50,2013-10-25 03:05:00
10:25 PM,44.6,32.0,61,30.40,10.0,ENE,5.8,-,N/A,,Overcast,60,2013-10-25 03:25:00
10:45 PM,44.6,32.0,61,30.41,10.0,East,5.8,-,N/A,,Mostly Cloudy,80,2013-10-25 03:45:00
11:05 PM,44.6,32.0,61,30.41,10.0,ENE,5.8,-,N/A,,Mostly Cloudy,70,2013-10-25 04:05:00
11:25 PM,42.8,32.0,66,30.42,10.0,East,6.9,-,N/A,,Mostly Cloudy,80,2013-10-25 04:25:00
11:45 PM,41.0,32.0,70,30.42,10.0,ENE,5.8,-,N/A,,Mostly Cloudy,70,2013-10-25 04:45:00